createdAt,value
2023-05-03T00:01:45.944Z,102972.63
2023-05-03T00:04:15.945Z,102985.00
2023-05-03T00:06:46.274Z,102988.94
2023-05-03T00:09:16.164Z,102990.75
2023-05-03T00:11:48.374Z,103000.41
2023-05-03T00:14:17.938Z,102988.59
2023-05-03T00:16:47.478Z,102994.63
2023-05-03T00:19:30.511Z,102996.50
2023-05-03T00:22:00.817Z,102993.28
2023-05-03T00:24:30.434Z,102986.94
2023-05-03T00:27:02.609Z,102982.75
2023-05-03T00:29:32.144Z,102993.84
2023-05-03T00:32:02.663Z,102989.88
2023-05-03T00:34:34.901Z,102992.25
2023-05-03T00:37:04.507Z,102990.84
2023-05-03T00:39:34.308Z,102996.13
2023-05-03T00:42:07.038Z,102997.31
2023-05-03T00:44:36.501Z,102991.34
2023-05-03T00:47:07.156Z,102984.06
2023-05-03T00:49:37.113Z,102982.19
2023-05-03T00:52:07.123Z,102979.66
2023-05-03T00:54:38.043Z,102984.94
2023-05-03T00:57:10.476Z,102973.63
2023-05-03T00:59:40.280Z,102977.84
2023-05-03T01:02:10.140Z,102976.44
2023-05-03T01:04:42.404Z,102974.63
2023-05-03T01:07:18.750Z,102969.91
2023-05-03T01:09:58.265Z,102972.06
2023-05-03T01:12:36.684Z,102974.44
2023-05-03T01:15:11.743Z,102975.41
2023-05-03T01:17:42.971Z,102970.47
2023-05-03T01:20:16.395Z,102979.19
2023-05-03T01:22:49.909Z,102989.63
2023-05-03T01:25:22.312Z,102993.28
2023-05-03T01:27:51.772Z,103000.88
2023-05-03T01:30:22.033Z,103005.28
2023-05-03T01:32:57.985Z,103000.38
2023-05-03T01:35:32.883Z,103002.41
2023-05-03T01:38:02.868Z,102995.91
2023-05-03T01:40:35.572Z,102996.09
2023-05-03T01:43:06.089Z,102996.97
2023-05-03T01:45:35.735Z,102994.41
2023-05-03T01:48:05.300Z,102991.88
2023-05-03T01:50:34.828Z,102994.78
2023-05-03T01:53:04.349Z,102992.53
2023-05-03T01:55:36.790Z,102986.84
2023-05-03T01:58:06.355Z,102999.44
2023-05-03T02:00:35.883Z,102998.94
2023-05-03T02:03:05.576Z,103003.09
2023-05-03T02:05:35.141Z,102995.50
2023-05-03T02:08:04.644Z,102990.91
2023-05-03T02:10:39.093Z,102979.94
2023-05-03T02:13:08.645Z,102976.19
2023-05-03T02:15:38.101Z,102975.06
2023-05-03T02:18:08.773Z,102980.56
2023-05-03T02:20:38.620Z,102994.22
2023-05-03T02:23:08.089Z,102992.53
2023-05-03T02:25:40.212Z,102998.19
2023-05-03T02:28:15.889Z,102998.81
2023-05-03T02:30:45.682Z,103008.00
2023-05-03T02:33:15.367Z,103010.53
2023-05-03T02:35:44.894Z,103022.19
2023-05-03T02:38:14.821Z,103031.50
2023-05-03T02:40:47.180Z,103034.19
2023-05-03T02:43:16.647Z,103033.72
2023-05-03T02:45:46.178Z,103053.94
2023-05-03T02:48:16.717Z,103044.72
2023-05-03T02:50:46.299Z,103056.97
2023-05-03T02:53:15.875Z,103064.53
2023-05-03T02:55:48.115Z,103058.63
2023-05-03T02:58:17.997Z,103066.56
2023-05-03T03:00:47.506Z,103076.03
2023-05-03T03:03:17.103Z,103080.94
2023-05-03T03:05:46.669Z,103088.78
2023-05-03T03:08:16.394Z,103097.94
2023-05-03T03:10:48.732Z,103101.00
2023-05-03T03:13:18.286Z,103103.34
2023-05-03T03:15:47.800Z,103107.00
2023-05-03T03:18:18.362Z,103110.78
2023-05-03T03:20:49.153Z,103108.97
2023-05-03T03:23:18.668Z,103084.84
2023-05-03T03:25:50.806Z,103099.38
2023-05-03T03:28:20.335Z,103110.88
2023-05-03T03:30:49.861Z,103112.84
2023-05-03T03:33:19.381Z,103116.38
2023-05-03T03:35:49.344Z,103124.25
2023-05-03T03:38:18.792Z,103108.81
2023-05-03T03:40:50.934Z,103117.72
2023-05-03T03:43:20.475Z,103115.84
2023-05-03T03:45:49.968Z,103118.63
2023-05-03T03:48:19.600Z,103107.53
2023-05-03T03:50:49.482Z,103119.16
2023-05-03T03:53:18.963Z,103120.50
2023-05-03T03:55:51.303Z,103123.00
2023-05-03T03:58:20.850Z,103107.63
2023-05-03T04:00:50.697Z,103117.91
2023-05-03T04:03:20.391Z,103119.28
2023-05-03T04:05:49.991Z,103121.78
2023-05-03T04:08:19.462Z,103121.34
2023-05-03T04:10:51.519Z,103116.44
2023-05-03T04:13:21.076Z,103131.19
2023-05-03T04:15:50.613Z,103129.66
2023-05-03T04:18:20.110Z,103135.13
2023-05-03T04:20:49.642Z,103139.78
2023-05-03T04:23:19.160Z,103149.69
2023-05-03T04:25:51.210Z,103141.06
2023-05-03T04:28:20.722Z,103142.97
2023-05-03T04:30:50.754Z,103138.88
2023-05-03T04:33:20.262Z,103139.72
2023-05-03T04:35:52.826Z,103138.88
2023-05-03T04:38:22.394Z,103139.38
2023-05-03T04:40:54.590Z,103141.09
2023-05-03T04:43:24.049Z,103147.25
2023-05-03T04:45:55.469Z,103145.97
2023-05-03T04:48:24.945Z,103143.25
2023-05-03T04:50:54.909Z,103148.03
2023-05-03T04:53:24.484Z,103139.81
2023-05-03T04:55:56.639Z,103142.03
2023-05-03T04:58:28.861Z,103114.25
2023-05-03T05:00:58.733Z,103116.44
2023-05-03T05:03:28.476Z,103095.19
2023-05-03T05:05:57.992Z,103092.50
2023-05-03T05:08:27.708Z,103088.34
2023-05-03T05:10:59.867Z,103097.56
2023-05-03T05:13:29.403Z,103080.84
2023-05-03T05:15:58.892Z,103085.25
2023-05-03T05:18:28.449Z,103072.84
2023-05-03T05:20:58.122Z,103047.75
2023-05-03T05:23:27.979Z,103047.13
2023-05-03T05:26:01.088Z,103032.72
2023-05-03T05:28:30.861Z,103031.34
2023-05-03T05:31:00.342Z,103031.34
2023-05-03T05:33:29.870Z,103044.66
2023-05-03T05:35:59.569Z,103025.09
2023-05-03T05:38:29.105Z,102977.47
2023-05-03T05:41:01.341Z,102949.63
2023-05-03T05:43:30.980Z,102950.81
2023-05-03T05:46:00.540Z,102939.97
2023-05-03T05:48:30.776Z,102971.88
2023-05-03T05:51:00.304Z,102971.75
2023-05-03T05:53:29.946Z,102862.41
2023-05-03T05:56:02.054Z,102815.88
2023-05-03T05:58:31.551Z,102818.72
2023-05-03T06:01:01.775Z,102824.25
2023-05-03T06:03:31.867Z,102779.44
2023-05-03T06:06:01.606Z,102761.38
2023-05-03T06:08:31.488Z,102708.41
2023-05-03T06:11:03.576Z,102679.66
2023-05-03T06:13:34.756Z,102686.25
2023-05-03T06:16:04.431Z,102682.13
2023-05-03T06:18:33.953Z,102676.47
2023-05-03T06:21:03.624Z,102670.19
2023-05-03T06:23:33.591Z,102656.63
2023-05-03T06:26:05.664Z,102535.44
2023-05-03T06:28:35.212Z,102447.84
2023-05-03T06:31:04.992Z,102359.53
2023-05-03T06:33:34.552Z,102257.97
2023-05-03T06:36:04.092Z,102172.16
2023-05-03T06:38:33.560Z,102163.66
2023-05-03T06:41:05.688Z,102114.16
2023-05-03T06:43:35.164Z,102047.22
2023-05-03T06:46:04.904Z,102006.72
2023-05-03T06:48:34.462Z,101993.69
2023-05-03T06:51:03.998Z,101980.13
2023-05-03T06:53:33.502Z,101971.88
2023-05-03T06:56:06.714Z,101970.06
2023-05-03T06:58:36.284Z,101974.09
2023-05-03T07:01:06.075Z,101987.81
2023-05-03T07:03:35.878Z,101993.03
2023-05-03T07:06:05.540Z,101994.16
2023-05-03T07:08:35.068Z,101987.06
2023-05-03T07:11:07.221Z,101995.50
2023-05-03T07:13:36.768Z,101992.16
2023-05-03T07:16:06.622Z,102009.47
2023-05-03T07:18:36.211Z,102028.69
2023-05-03T07:21:08.680Z,102051.91
2023-05-03T07:23:38.929Z,102065.63
2023-05-03T07:26:11.302Z,102087.59
2023-05-03T07:28:40.815Z,102091.00
2023-05-03T07:31:10.289Z,102090.84
2023-05-03T07:33:40.128Z,102138.88
2023-05-03T07:36:10.113Z,102127.84
2023-05-03T07:38:39.576Z,102193.03
2023-05-03T07:41:11.692Z,102128.34
2023-05-03T07:43:41.665Z,102177.50
2023-05-03T07:46:11.206Z,102215.47
2023-05-03T07:48:40.751Z,102176.59
2023-05-03T07:51:10.289Z,102171.78
2023-05-03T07:53:40.491Z,102218.34
2023-05-03T07:56:13.368Z,102232.63
2023-05-03T07:58:45.005Z,102215.34
2023-05-03T08:01:16.451Z,102232.81
2023-05-03T08:03:46.243Z,102266.31
2023-05-03T08:06:16.210Z,102306.78
2023-05-03T08:08:45.721Z,102351.69
2023-05-03T08:11:17.820Z,102409.28
2023-05-03T08:13:47.317Z,102430.81
2023-05-03T08:16:16.932Z,102413.19
2023-05-03T08:18:46.928Z,102394.66
2023-05-03T08:21:17.720Z,102366.66
2023-05-03T08:23:47.447Z,102328.69
2023-05-03T08:26:19.622Z,102330.25
2023-05-03T08:28:49.149Z,102361.41
2023-05-03T08:31:19.069Z,102381.22
2023-05-03T08:33:48.586Z,102405.88
2023-05-03T08:36:18.158Z,102353.69
2023-05-03T08:38:47.668Z,102464.72
2023-05-03T08:41:26.242Z,102493.13
2023-05-03T08:43:57.575Z,102504.78
2023-05-03T08:46:28.877Z,102518.94
2023-05-03T08:48:58.907Z,102495.78
2023-05-03T08:51:28.732Z,102508.63
2023-05-03T08:53:58.242Z,102454.50
2023-05-03T08:56:32.892Z,102411.66
2023-05-03T08:59:07.940Z,102387.38
2023-05-03T09:01:38.580Z,102415.13
2023-05-03T09:04:08.896Z,102425.19
2023-05-03T09:06:38.799Z,102419.66
2023-05-03T09:09:10.790Z,102453.34
2023-05-03T09:11:42.939Z,102495.13
2023-05-03T09:14:13.764Z,102532.06
2023-05-03T09:16:45.000Z,102518.16
2023-05-03T09:19:15.251Z,102528.94
2023-05-03T09:21:47.143Z,102540.69
2023-05-03T09:24:17.533Z,102558.91
2023-05-03T09:26:51.266Z,102560.25
2023-05-03T09:29:31.785Z,102588.13
2023-05-03T09:32:02.806Z,102574.06
2023-05-03T09:34:32.573Z,102561.75
2023-05-03T09:37:02.137Z,102446.03
2023-05-03T09:39:31.726Z,102597.78
2023-05-03T09:42:13.377Z,102507.22
2023-05-03T09:44:44.627Z,102597.91
2023-05-03T09:47:15.373Z,102608.75
2023-05-03T09:49:44.869Z,102698.66
2023-05-03T09:52:14.629Z,102683.16
2023-05-03T09:54:47.603Z,102717.16
2023-05-03T09:57:20.079Z,102701.59
2023-05-03T09:59:50.876Z,102712.28
2023-05-03T10:02:21.979Z,102733.47
2023-05-03T10:04:57.080Z,102720.13
2023-05-03T10:07:29.016Z,102716.94
2023-05-03T10:09:59.436Z,102720.16
2023-05-03T10:12:34.845Z,102700.63
2023-05-03T10:15:06.270Z,102688.66
2023-05-03T10:17:47.722Z,102659.25
2023-05-03T10:20:24.328Z,102680.00
2023-05-03T10:23:12.501Z,102676.31
2023-05-03T10:25:43.446Z,102683.75
2023-05-03T10:28:15.769Z,102709.81
2023-05-03T10:30:46.706Z,102722.41
2023-05-03T10:33:35.492Z,102722.00
2023-05-03T10:36:10.846Z,102716.81
2023-05-03T10:38:40.699Z,102712.47
2023-05-03T10:41:10.492Z,102717.97
2023-05-03T10:43:49.077Z,102713.03
2023-05-03T10:46:39.431Z,102704.94
2023-05-03T10:49:27.565Z,102708.31
2023-05-03T10:51:58.751Z,102709.22
2023-05-03T10:54:28.959Z,102709.72
2023-05-03T10:57:00.411Z,102707.69
2023-05-03T10:59:49.327Z,102706.66
2023-05-03T11:02:19.942Z,102703.53
2023-05-03T11:04:52.534Z,102700.25
2023-05-03T11:07:22.961Z,102704.19
2023-05-03T11:09:52.445Z,102707.53
2023-05-03T11:12:22.043Z,102707.97
2023-05-03T11:14:55.991Z,102717.78
2023-05-03T11:17:29.355Z,102711.97
2023-05-03T11:19:58.946Z,102706.09
2023-05-03T11:22:28.492Z,102712.59
2023-05-03T11:24:59.026Z,102707.91
2023-05-03T11:27:28.723Z,102704.06
2023-05-03T11:30:00.981Z,102707.66
2023-05-03T11:32:31.601Z,102716.81
2023-05-03T11:35:05.896Z,102701.66
2023-05-03T11:37:35.626Z,102707.19
2023-05-03T11:40:06.768Z,102708.25
2023-05-03T11:42:36.822Z,102701.53
2023-05-03T11:45:10.616Z,102697.59
2023-05-03T11:47:40.642Z,102696.75
2023-05-03T11:50:11.079Z,102689.88
2023-05-03T11:52:41.798Z,102700.66
2023-05-03T11:55:12.204Z,102699.13
2023-05-03T11:57:42.292Z,102696.25
2023-05-03T12:00:21.214Z,102691.66
2023-05-03T12:02:51.605Z,102702.94
2023-05-03T12:05:22.571Z,102687.91
2023-05-03T12:07:53.368Z,102689.47
2023-05-03T12:10:26.618Z,102686.34
2023-05-03T12:12:59.753Z,102680.38
2023-05-03T12:15:34.327Z,102678.00
2023-05-03T12:18:05.846Z,102677.69
2023-05-03T12:23:11.356Z,102664.13
2023-05-03T12:25:44.463Z,102650.91
2023-05-03T12:28:19.769Z,102659.09
2023-05-03T12:30:53.528Z,102648.31
2023-05-03T12:33:23.697Z,102653.91
2023-05-03T12:35:54.521Z,102647.44
2023-05-03T12:38:25.407Z,102643.16
2023-05-03T12:40:56.200Z,102634.06
2023-05-03T12:43:25.794Z,102641.66
2023-05-03T12:46:25.217Z,102639.34
2023-05-03T12:48:48.754Z,102635.03
2023-05-03T12:51:20.493Z,102630.47
2023-05-03T12:53:55.621Z,102636.16
2023-05-03T12:56:26.053Z,102626.38
2023-05-03T13:06:42.273Z,102620.81
2023-05-03T13:09:19.849Z,102613.81
2023-05-03T13:11:52.681Z,102609.78
2023-05-03T13:14:22.501Z,102605.78
2023-05-03T13:16:55.230Z,102591.63
2023-05-03T13:19:25.122Z,102593.13
2023-05-03T13:21:54.651Z,102595.56
2023-05-03T13:24:24.347Z,102602.19
2023-05-03T13:26:53.856Z,102607.00
2023-05-03T13:29:24.290Z,102587.03
2023-05-03T13:31:56.462Z,102589.88
2023-05-03T13:34:26.390Z,102587.38
2023-05-03T13:36:55.895Z,102581.44
2023-05-03T13:39:25.888Z,102574.81
2023-05-03T13:41:55.402Z,102574.88
2023-05-03T13:44:26.320Z,102551.69
2023-05-03T13:46:58.771Z,102581.34
2023-05-03T13:49:28.610Z,102586.75
2023-05-03T13:51:58.354Z,102586.59
2023-05-03T13:54:28.718Z,102581.69
2023-05-03T13:56:59.861Z,102580.47
2023-05-03T13:59:29.348Z,102582.25
2023-05-03T14:02:02.335Z,102569.28
2023-05-03T14:04:32.027Z,102577.88
2023-05-03T14:07:03.534Z,102576.38
2023-05-03T14:09:33.241Z,102565.97
2023-05-03T14:12:03.228Z,102567.63
2023-05-03T14:14:32.766Z,102558.97
2023-05-03T14:17:05.377Z,102561.88
2023-05-03T14:19:38.108Z,102557.94
2023-05-03T14:22:08.344Z,102556.50
2023-05-03T14:24:38.143Z,102554.53
2023-05-03T14:27:07.596Z,102549.22
2023-05-03T14:29:37.183Z,102563.50
2023-05-03T14:32:10.532Z,102575.84
2023-05-03T14:34:40.076Z,102564.63
2023-05-03T14:37:09.614Z,102568.03
2023-05-03T14:39:39.286Z,102555.53
2023-05-03T14:42:09.760Z,102561.41
2023-05-03T14:44:39.575Z,102555.84
2023-05-03T14:47:11.954Z,102556.03
2023-05-03T14:49:43.164Z,102546.69
2023-05-03T14:52:12.651Z,102560.06
2023-05-03T14:54:42.173Z,102547.63
2023-05-03T14:57:11.722Z,102551.81
2023-05-03T14:59:41.379Z,102568.28
2023-05-03T15:02:13.509Z,102545.44
2023-05-03T15:04:43.354Z,102551.09
2023-05-03T15:07:12.895Z,102551.13
2023-05-03T15:09:42.350Z,102550.13
2023-05-03T15:12:11.861Z,102554.03
2023-05-03T15:14:41.598Z,102550.88
2023-05-03T15:17:13.805Z,102558.78
2023-05-03T15:19:43.821Z,102542.50
2023-05-03T15:22:13.492Z,102554.94
2023-05-03T15:24:43.062Z,102547.50
2023-05-03T15:27:12.856Z,102539.91
2023-05-03T15:29:43.553Z,102549.94
2023-05-03T15:32:16.137Z,102546.81
2023-05-03T15:34:45.692Z,102544.38
2023-05-03T15:37:15.546Z,102558.66
2023-05-03T15:39:45.062Z,102549.81
2023-05-03T15:42:14.597Z,102548.91
2023-05-03T15:44:46.998Z,102548.84
2023-05-03T15:47:19.390Z,102539.44
2023-05-03T15:49:50.929Z,102535.97
2023-05-03T15:52:20.476Z,102534.41
2023-05-03T15:54:49.967Z,102549.34
2023-05-03T15:57:19.786Z,102527.78
2023-05-03T15:59:49.587Z,102531.56
2023-05-03T16:02:21.641Z,102532.59
2023-05-03T16:04:52.049Z,102544.06
2023-05-03T16:07:21.548Z,102537.81
2023-05-03T16:09:51.148Z,102534.59
2023-05-03T16:12:20.952Z,102531.72
2023-05-03T16:14:50.513Z,102530.91
2023-05-03T16:17:22.606Z,102531.69
2023-05-03T16:19:52.166Z,102537.41
2023-05-03T16:22:21.864Z,102532.03
2023-05-03T16:24:51.889Z,102528.38
2023-05-03T16:27:21.403Z,102527.16
2023-05-03T16:29:51.641Z,102529.19
2023-05-03T16:32:24.573Z,102524.38
2023-05-03T16:34:54.130Z,102520.78
2023-05-03T16:37:24.613Z,102520.84
2023-05-03T16:39:54.577Z,102512.94
2023-05-03T16:42:24.061Z,102514.75
2023-05-03T16:44:53.712Z,102516.75
2023-05-03T16:47:26.053Z,102513.69
2023-05-03T16:49:57.873Z,102509.41
2023-05-03T16:52:31.222Z,102512.16
2023-05-03T16:55:00.828Z,102509.31
2023-05-03T16:57:30.392Z,102518.50
2023-05-03T17:00:04.989Z,102513.22
2023-05-03T17:02:37.598Z,102515.97
2023-05-03T17:05:08.418Z,102507.09
2023-05-03T17:07:38.313Z,102508.13
2023-05-03T17:10:09.214Z,102506.81
2023-05-03T17:12:39.049Z,102504.44
2023-05-03T17:15:10.255Z,102495.69
2023-05-03T17:17:42.931Z,102493.47
2023-05-03T17:20:13.796Z,102498.03
2023-05-03T17:22:43.537Z,102488.97
2023-05-03T17:25:15.434Z,102492.91
2023-05-03T17:27:45.736Z,102494.00
2023-05-03T17:30:16.759Z,102480.47
2023-05-03T17:32:49.967Z,102476.97
2023-05-03T17:35:19.708Z,102468.31
2023-05-03T17:37:49.223Z,102466.47
2023-05-03T17:40:18.826Z,102462.50
2023-05-03T17:42:48.719Z,102463.19
2023-05-03T17:45:19.492Z,102453.34
2023-05-03T17:47:51.654Z,102436.22
2023-05-03T17:50:21.661Z,102439.88
2023-05-03T17:52:51.312Z,102441.31
2023-05-03T17:55:20.875Z,102448.59
2023-05-03T17:57:50.489Z,102440.88
2023-05-03T18:00:22.574Z,102441.56
2023-05-03T18:02:54.856Z,102437.44
2023-05-03T18:05:24.432Z,102433.88
2023-05-03T18:07:53.925Z,102418.16
2023-05-03T18:10:23.751Z,102420.75
2023-05-03T18:12:53.342Z,102426.13
2023-05-03T18:15:23.584Z,102419.69
2023-05-03T18:17:55.767Z,102411.88
2023-05-03T18:20:25.315Z,102399.28
2023-05-03T18:22:54.857Z,102385.28
2023-05-03T18:25:24.487Z,102365.50
2023-05-03T18:27:54.155Z,102350.13
2023-05-03T18:30:23.698Z,102334.13
2023-05-03T18:32:55.884Z,102320.59
2023-05-03T18:35:25.540Z,102303.69
2023-05-03T18:37:55.729Z,102286.56
2023-05-03T18:40:25.282Z,102260.50
2023-05-03T18:42:54.747Z,102253.09
2023-05-03T18:45:25.372Z,102261.84
2023-05-03T18:47:57.533Z,102259.25
2023-05-03T18:50:27.317Z,102241.47
2023-05-03T18:52:56.856Z,102217.34
2023-05-03T18:55:26.409Z,102197.19
2023-05-03T18:57:56.002Z,102173.38
2023-05-03T19:00:25.902Z,102175.16
2023-05-03T19:02:58.001Z,102165.88
2023-05-03T19:05:27.664Z,102153.81
2023-05-03T19:07:57.146Z,102136.81
2023-05-03T19:10:27.428Z,102118.88
2023-05-03T19:12:57.431Z,102127.03
2023-05-03T19:15:27.251Z,102120.91
2023-05-03T19:17:59.429Z,102124.59
2023-05-03T19:20:28.995Z,102103.91
2023-05-03T19:22:58.466Z,102097.66
2023-05-03T19:25:28.069Z,102104.16
2023-05-03T19:27:57.595Z,102107.16
2023-05-03T19:30:27.153Z,102095.53
2023-05-03T19:32:59.485Z,102081.13
2023-05-03T19:35:29.082Z,102052.16
2023-05-03T19:37:58.570Z,102045.56
2023-05-03T19:40:28.066Z,102032.72
2023-05-03T19:42:57.907Z,102018.84
2023-05-03T19:45:27.882Z,102007.78
2023-05-03T19:48:00.037Z,101966.81
2023-05-03T19:50:29.574Z,101946.81
2023-05-03T19:52:59.084Z,101939.44
2023-05-03T19:55:28.661Z,101941.34
2023-05-03T19:57:58.226Z,101940.78
2023-05-03T20:00:28.600Z,101944.00
2023-05-03T20:03:00.782Z,101940.53
2023-05-03T20:05:31.125Z,101924.59
2023-05-03T20:08:00.710Z,101904.81
2023-05-03T20:10:35.531Z,101888.50
2023-05-03T20:13:07.195Z,101884.94
2023-05-03T20:15:38.318Z,101884.69
2023-05-03T20:18:10.479Z,101880.81
2023-05-03T20:20:40.034Z,101877.78
2023-05-03T20:23:09.550Z,101872.66
2023-05-03T20:25:39.144Z,101879.09
2023-05-03T20:28:08.756Z,101880.44
2023-05-03T20:30:38.399Z,101882.22
2023-05-03T20:33:10.796Z,101881.09
2023-05-03T20:35:40.797Z,101890.94
2023-05-03T20:38:10.287Z,101893.38
2023-05-03T20:40:40.029Z,101895.16
2023-05-03T20:43:10.262Z,101891.72
2023-05-03T20:45:39.780Z,101875.88
2023-05-03T20:48:12.498Z,101858.22
2023-05-03T20:50:42.065Z,101857.66
2023-05-03T20:53:11.614Z,101862.41
2023-05-03T20:55:41.349Z,101862.78
2023-05-03T20:58:12.381Z,101853.59
2023-05-03T21:00:41.947Z,101857.53
2023-05-03T21:03:14.620Z,101855.41
2023-05-03T21:05:44.204Z,101850.03
2023-05-03T21:08:13.713Z,101853.56
2023-05-03T21:10:43.219Z,101842.66
2023-05-03T21:13:14.316Z,101847.84
2023-05-03T21:15:43.953Z,101832.78
2023-05-03T21:18:16.149Z,101831.78
2023-05-03T21:20:45.714Z,101832.91
2023-05-03T21:23:15.501Z,101831.13
2023-05-03T21:25:45.034Z,101837.13
2023-05-03T21:28:14.806Z,101827.19
2023-05-03T21:30:48.322Z,101827.03
2023-05-03T21:33:23.989Z,101824.13
2023-05-03T21:35:53.608Z,101828.34
2023-05-03T21:38:23.167Z,101822.09
2023-05-03T21:40:52.892Z,101820.84
2023-05-03T21:43:22.369Z,101813.00
2023-05-03T21:45:52.329Z,101819.47
2023-05-03T21:48:25.327Z,101815.28
2023-05-03T21:50:54.884Z,101815.38
2023-05-03T21:53:24.654Z,101816.16
2023-05-03T21:55:54.128Z,101815.81
2023-05-03T21:58:23.687Z,101806.75
2023-05-03T22:00:53.698Z,101805.59
2023-05-03T22:03:25.893Z,101810.88
2023-05-03T22:05:55.381Z,101806.91
2023-05-03T22:08:24.858Z,101811.16
2023-05-03T22:10:56.262Z,101810.81
2023-05-03T22:13:25.768Z,101804.00
2023-05-03T22:15:55.309Z,101807.97
2023-05-03T22:18:28.285Z,101812.09
2023-05-03T22:20:57.985Z,101818.53
2023-05-03T22:23:27.489Z,101820.06
2023-05-03T22:25:57.018Z,101817.81
2023-05-03T22:28:26.670Z,101825.72
2023-05-03T22:30:56.726Z,101831.78
2023-05-03T22:33:28.944Z,101852.38
2023-05-03T22:35:58.644Z,101867.50
2023-05-03T22:38:28.340Z,101880.69
2023-05-03T22:40:57.849Z,101894.88
2023-05-03T22:43:27.437Z,101913.84
2023-05-03T22:45:56.993Z,101924.31
2023-05-03T22:48:32.503Z,101949.00
2023-05-03T22:51:02.708Z,101965.88
2023-05-03T22:53:32.548Z,101977.66
2023-05-03T22:56:04.491Z,101973.19
2023-05-03T22:58:34.511Z,101977.66
2023-05-03T23:01:04.732Z,101983.78
2023-05-03T23:03:36.984Z,101997.47
2023-05-03T23:06:07.068Z,102016.81
2023-05-03T23:08:36.613Z,102026.38
2023-05-03T23:11:06.272Z,102041.34
2023-05-03T23:13:35.902Z,102048.72
2023-05-03T23:16:05.696Z,102063.59
2023-05-03T23:18:38.026Z,102077.63
2023-05-03T23:21:07.534Z,102096.44
2023-05-03T23:23:37.037Z,102110.41
2023-05-03T23:26:06.699Z,102121.13
2023-05-03T23:28:36.885Z,102140.28
2023-05-03T23:31:07.195Z,102155.63
2023-05-03T23:33:39.879Z,102171.19
2023-05-03T23:36:10.123Z,102181.16
2023-05-03T23:38:39.646Z,102191.38
2023-05-03T23:41:09.216Z,102196.50
2023-05-03T23:43:38.709Z,102215.91
2023-05-03T23:46:08.432Z,102232.53
2023-05-03T23:48:40.806Z,102323.06
2023-05-03T23:51:10.445Z,102360.66
2023-05-03T23:53:39.944Z,102372.31
2023-05-03T23:56:09.911Z,102376.47
2023-05-03T23:58:39.380Z,102378.34
